sensor_id;sensor_type;location;lat;lon;timestamp;temperature;humidity
14555;DHT22;7364;50.870;4.722;2022-07-29T00:01:48;21.30;72.70
14555;DHT22;7364;50.870;4.722;2022-07-29T00:04:15;21.30;72.60
14555;DHT22;7364;50.870;4.722;2022-07-29T00:06:42;21.10;73.10
14555;DHT22;7364;50.870;4.722;2022-07-29T00:09:09;21.00;73.50
14555;DHT22;7364;50.870;4.722;2022-07-29T00:11:37;21.00;74.10
14555;DHT22;7364;50.870;4.722;2022-07-29T00:14:04;20.90;74.30
14555;DHT22;7364;50.870;4.722;2022-07-29T00:16:32;20.90;74.40
14555;DHT22;7364;50.870;4.722;2022-07-29T00:19:03;21.00;74.40
14555;DHT22;7364;50.870;4.722;2022-07-29T00:21:30;21.00;74.40
14555;DHT22;7364;50.870;4.722;2022-07-29T00:23:57;21.20;74.10
14555;DHT22;7364;50.870;4.722;2022-07-29T00:26:25;21.10;74.40
14555;DHT22;7364;50.870;4.722;2022-07-29T00:28:53;21.00;74.80
14555;DHT22;7364;50.870;4.722;2022-07-29T00:31:20;20.90;74.90
14555;DHT22;7364;50.870;4.722;2022-07-29T00:33:47;20.80;75.10
14555;DHT22;7364;50.870;4.722;2022-07-29T00:36:16;20.80;75.50
14555;DHT22;7364;50.870;4.722;2022-07-29T00:38:42;20.90;75.50
14555;DHT22;7364;50.870;4.722;2022-07-29T00:41:13;20.80;75.60
14555;DHT22;7364;50.870;4.722;2022-07-29T00:43:41;20.80;76.00
14555;DHT22;7364;50.870;4.722;2022-07-29T00:46:08;20.60;76.40
14555;DHT22;7364;50.870;4.722;2022-07-29T00:48:35;20.70;76.60
14555;DHT22;7364;50.870;4.722;2022-07-29T00:51:06;20.80;76.60
14555;DHT22;7364;50.870;4.722;2022-07-29T00:53:38;20.60;76.80
14555;DHT22;7364;50.870;4.722;2022-07-29T00:56:05;20.40;77.70
14555;DHT22;7364;50.870;4.722;2022-07-29T00:58:32;20.20;78.50
14555;DHT22;7364;50.870;4.722;2022-07-29T01:00:59;20.10;79.00
14555;DHT22;7364;50.870;4.722;2022-07-29T01:03:27;20.10;79.50
14555;DHT22;7364;50.870;4.722;2022-07-29T01:05:54;20.00;79.50
14555;DHT22;7364;50.870;4.722;2022-07-29T01:08:23;20.00;79.60
14555;DHT22;7364;50.870;4.722;2022-07-29T01:10:52;20.10;79.70
14555;DHT22;7364;50.870;4.722;2022-07-29T01:13:20;20.00;79.60
14555;DHT22;7364;50.870;4.722;2022-07-29T01:15:51;20.00;79.60
14555;DHT22;7364;50.870;4.722;2022-07-29T01:18:22;20.00;79.90
14555;DHT22;7364;50.870;4.722;2022-07-29T01:21:21;20.00;80.10
14555;DHT22;7364;50.870;4.722;2022-07-29T01:24:11;20.10;80.00
14555;DHT22;7364;50.870;4.722;2022-07-29T01:26:49;20.00;80.20
14555;DHT22;7364;50.870;4.722;2022-07-29T01:29:26;19.90;80.80
14555;DHT22;7364;50.870;4.722;2022-07-29T01:31:57;19.90;81.10
14555;DHT22;7364;50.870;4.722;2022-07-29T01:34:34;19.90;81.20
14555;DHT22;7364;50.870;4.722;2022-07-29T01:37:08;19.80;81.40
14555;DHT22;7364;50.870;4.722;2022-07-29T01:39:40;19.70;82.00
14555;DHT22;7364;50.870;4.722;2022-07-29T01:42:26;19.60;82.40
14555;DHT22;7364;50.870;4.722;2022-07-29T01:44:57;19.50;82.80
14555;DHT22;7364;50.870;4.722;2022-07-29T01:47:33;19.50;83.20
14555;DHT22;7364;50.870;4.722;2022-07-29T01:50:05;19.40;83.20
14555;DHT22;7364;50.870;4.722;2022-07-29T01:52:38;19.60;83.00
14555;DHT22;7364;50.870;4.722;2022-07-29T01:55:11;19.70;82.50
14555;DHT22;7364;50.870;4.722;2022-07-29T01:57:43;19.80;82.20
14555;DHT22;7364;50.870;4.722;2022-07-29T02:00:16;20.00;81.80
14555;DHT22;7364;50.870;4.722;2022-07-29T02:02:47;20.20;81.10
14555;DHT22;7364;50.870;4.722;2022-07-29T02:05:20;20.20;81.00
14555;DHT22;7364;50.870;4.722;2022-07-29T02:07:49;20.20;81.00
14555;DHT22;7364;50.870;4.722;2022-07-29T02:10:20;20.00;81.30
14555;DHT22;7364;50.870;4.722;2022-07-29T02:12:48;19.80;82.80
14555;DHT22;7364;50.870;4.722;2022-07-29T02:15:19;19.60;82.90
14555;DHT22;7364;50.870;4.722;2022-07-29T02:17:52;19.50;83.50
14555;DHT22;7364;50.870;4.722;2022-07-29T02:20:22;19.40;83.70
14555;DHT22;7364;50.870;4.722;2022-07-29T02:22:52;19.20;84.40
14555;DHT22;7364;50.870;4.722;2022-07-29T02:25:21;19.10;85.30
14555;DHT22;7364;50.870;4.722;2022-07-29T02:27:51;19.00;85.90
14555;DHT22;7364;50.870;4.722;2022-07-29T02:30:22;18.90;86.50
14555;DHT22;7364;50.870;4.722;2022-07-29T02:32:51;18.90;86.80
14555;DHT22;7364;50.870;4.722;2022-07-29T02:35:20;18.90;86.90
14555;DHT22;7364;50.870;4.722;2022-07-29T02:37:48;19.00;87.10
14555;DHT22;7364;50.870;4.722;2022-07-29T02:40:38;19.00;87.30
14555;DHT22;7364;50.870;4.722;2022-07-29T02:43:07;19.10;87.10
14555;DHT22;7364;50.870;4.722;2022-07-29T02:45:38;19.30;86.50
14555;DHT22;7364;50.870;4.722;2022-07-29T02:48:11;19.40;86.20
14555;DHT22;7364;50.870;4.722;2022-07-29T02:50:47;19.40;86.10
14555;DHT22;7364;50.870;4.722;2022-07-29T02:53:18;19.40;86.30
14555;DHT22;7364;50.870;4.722;2022-07-29T02:55:51;19.30;86.30
14555;DHT22;7364;50.870;4.722;2022-07-29T02:58:27;19.30;86.40
14555;DHT22;7364;50.870;4.722;2022-07-29T03:00:57;19.10;86.90
14555;DHT22;7364;50.870;4.722;2022-07-29T03:03:28;19.00;87.30
14555;DHT22;7364;50.870;4.722;2022-07-29T03:05:58;19.00;87.70
14555;DHT22;7364;50.870;4.722;2022-07-29T03:08:27;18.80;88.20
14555;DHT22;7364;50.870;4.722;2022-07-29T03:10:55;18.80;88.50
14555;DHT22;7364;50.870;4.722;2022-07-29T03:13:23;18.80;88.60
14555;DHT22;7364;50.870;4.722;2022-07-29T03:15:52;18.90;88.60
14555;DHT22;7364;50.870;4.722;2022-07-29T03:18:22;18.80;88.70
14555;DHT22;7364;50.870;4.722;2022-07-29T03:20:49;18.80;89.00
14555;DHT22;7364;50.870;4.722;2022-07-29T03:23:18;18.70;89.20
14555;DHT22;7364;50.870;4.722;2022-07-29T03:25:46;18.60;89.30
14555;DHT22;7364;50.870;4.722;2022-07-29T03:28:14;18.50;90.10
14555;DHT22;7364;50.870;4.722;2022-07-29T03:30:42;18.50;90.20
14555;DHT22;7364;50.870;4.722;2022-07-29T03:33:09;18.40;90.20
14555;DHT22;7364;50.870;4.722;2022-07-29T03:35:37;18.40;90.50
14555;DHT22;7364;50.870;4.722;2022-07-29T03:38:05;18.40;90.50
14555;DHT22;7364;50.870;4.722;2022-07-29T03:40:35;18.30;90.60
14555;DHT22;7364;50.870;4.722;2022-07-29T03:43:05;18.40;90.50
14555;DHT22;7364;50.870;4.722;2022-07-29T03:45:39;18.40;90.60
14555;DHT22;7364;50.870;4.722;2022-07-29T03:48:11;18.20;90.80
14555;DHT22;7364;50.870;4.722;2022-07-29T03:50:41;18.20;91.00
14555;DHT22;7364;50.870;4.722;2022-07-29T03:53:09;18.30;91.00
14555;DHT22;7364;50.870;4.722;2022-07-29T03:55:48;18.40;90.70
14555;DHT22;7364;50.870;4.722;2022-07-29T03:58:19;18.40;90.70
14555;DHT22;7364;50.870;4.722;2022-07-29T04:00:47;18.40;90.80
14555;DHT22;7364;50.870;4.722;2022-07-29T04:03:15;18.30;90.90
14555;DHT22;7364;50.870;4.722;2022-07-29T04:06:08;18.30;91.40
14555;DHT22;7364;50.870;4.722;2022-07-29T04:08:35;18.40;91.00
14555;DHT22;7364;50.870;4.722;2022-07-29T04:11:04;18.50;90.60
14555;DHT22;7364;50.870;4.722;2022-07-29T04:13:31;18.60;90.50
14555;DHT22;7364;50.870;4.722;2022-07-29T04:15:59;18.50;90.50
14555;DHT22;7364;50.870;4.722;2022-07-29T04:18:26;18.30;90.70
14555;DHT22;7364;50.870;4.722;2022-07-29T04:20:53;18.20;91.00
14555;DHT22;7364;50.870;4.722;2022-07-29T04:23:29;18.10;91.20
14555;DHT22;7364;50.870;4.722;2022-07-29T04:25:58;18.00;91.50
14555;DHT22;7364;50.870;4.722;2022-07-29T04:28:26;18.10;91.60
14555;DHT22;7364;50.870;4.722;2022-07-29T04:30:53;18.20;91.50
14555;DHT22;7364;50.870;4.722;2022-07-29T04:33:21;18.30;91.30
14555;DHT22;7364;50.870;4.722;2022-07-29T04:35:48;18.20;91.40
14555;DHT22;7364;50.870;4.722;2022-07-29T04:38:15;18.10;91.60
14555;DHT22;7364;50.870;4.722;2022-07-29T04:40:44;18.00;91.90
14555;DHT22;7364;50.870;4.722;2022-07-29T04:43:11;18.00;92.10
14555;DHT22;7364;50.870;4.722;2022-07-29T04:45:38;18.10;92.00
14555;DHT22;7364;50.870;4.722;2022-07-29T04:48:06;18.20;92.00
14555;DHT22;7364;50.870;4.722;2022-07-29T04:50:33;18.50;91.50
14555;DHT22;7364;50.870;4.722;2022-07-29T04:53:01;18.70;91.20
14555;DHT22;7364;50.870;4.722;2022-07-29T04:55:28;18.50;91.30
14555;DHT22;7364;50.870;4.722;2022-07-29T04:57:57;18.60;91.40
14555;DHT22;7364;50.870;4.722;2022-07-29T05:00:24;18.60;91.40
14555;DHT22;7364;50.870;4.722;2022-07-29T05:02:51;18.70;91.50
14555;DHT22;7364;50.870;4.722;2022-07-29T05:05:19;18.50;91.60
14555;DHT22;7364;50.870;4.722;2022-07-29T05:07:46;18.40;92.00
14555;DHT22;7364;50.870;4.722;2022-07-29T05:10:13;18.40;92.30
14555;DHT22;7364;50.870;4.722;2022-07-29T05:12:41;18.40;92.20
14555;DHT22;7364;50.870;4.722;2022-07-29T05:15:10;18.50;92.20
14555;DHT22;7364;50.870;4.722;2022-07-29T05:17:37;18.40;92.50
14555;DHT22;7364;50.870;4.722;2022-07-29T05:20:06;18.10;92.70
14555;DHT22;7364;50.870;4.722;2022-07-29T05:22:35;18.00;93.30
14555;DHT22;7364;50.870;4.722;2022-07-29T05:25:02;17.90;93.60
14555;DHT22;7364;50.870;4.722;2022-07-29T05:27:30;17.90;93.70
14555;DHT22;7364;50.870;4.722;2022-07-29T05:29:57;17.90;94.00
14555;DHT22;7364;50.870;4.722;2022-07-29T05:32:25;17.90;94.40
14555;DHT22;7364;50.870;4.722;2022-07-29T05:34:53;18.00;93.90
14555;DHT22;7364;50.870;4.722;2022-07-29T05:37:20;18.00;93.90
14555;DHT22;7364;50.870;4.722;2022-07-29T05:39:47;18.00;93.90
14555;DHT22;7364;50.870;4.722;2022-07-29T05:42:15;18.10;93.70
14555;DHT22;7364;50.870;4.722;2022-07-29T05:44:43;18.20;93.50
14555;DHT22;7364;50.870;4.722;2022-07-29T05:47:14;18.20;93.50
14555;DHT22;7364;50.870;4.722;2022-07-29T05:49:43;18.10;93.80
14555;DHT22;7364;50.870;4.722;2022-07-29T05:52:10;18.10;94.20
14555;DHT22;7364;50.870;4.722;2022-07-29T05:54:38;18.20;94.00
14555;DHT22;7364;50.870;4.722;2022-07-29T05:57:06;18.10;94.30
14555;DHT22;7364;50.870;4.722;2022-07-29T05:59:36;18.10;94.30
14555;DHT22;7364;50.870;4.722;2022-07-29T06:02:03;18.10;94.30
14555;DHT22;7364;50.870;4.722;2022-07-29T06:04:31;18.10;94.30
14555;DHT22;7364;50.870;4.722;2022-07-29T06:06:59;18.30;94.40
14555;DHT22;7364;50.870;4.722;2022-07-29T06:09:27;18.40;94.10
14555;DHT22;7364;50.870;4.722;2022-07-29T06:11:54;18.50;94.00
14555;DHT22;7364;50.870;4.722;2022-07-29T06:14:23;18.50;94.10
14555;DHT22;7364;50.870;4.722;2022-07-29T06:16:50;18.60;94.00
14555;DHT22;7364;50.870;4.722;2022-07-29T06:19:18;18.60;94.00
14555;DHT22;7364;50.870;4.722;2022-07-29T06:21:46;18.80;94.00
14555;DHT22;7364;50.870;4.722;2022-07-29T06:24:15;18.70;94.00
14555;DHT22;7364;50.870;4.722;2022-07-29T06:26:45;18.80;94.30
14555;DHT22;7364;50.870;4.722;2022-07-29T06:29:13;18.90;94.00
14555;DHT22;7364;50.870;4.722;2022-07-29T06:31:40;18.80;94.00
14555;DHT22;7364;50.870;4.722;2022-07-29T06:34:07;18.70;94.30
14555;DHT22;7364;50.870;4.722;2022-07-29T06:36:35;18.60;94.70
14555;DHT22;7364;50.870;4.722;2022-07-29T06:39:05;18.70;95.00
14555;DHT22;7364;50.870;4.722;2022-07-29T06:41:53;18.80;94.90
14555;DHT22;7364;50.870;4.722;2022-07-29T06:44:27;18.90;94.30
14555;DHT22;7364;50.870;4.722;2022-07-29T06:46:54;19.00;94.30
14555;DHT22;7364;50.870;4.722;2022-07-29T06:49:28;19.00;94.40
14555;DHT22;7364;50.870;4.722;2022-07-29T06:51:55;18.90;94.70
14555;DHT22;7364;50.870;4.722;2022-07-29T06:54:22;19.00;94.70
14555;DHT22;7364;50.870;4.722;2022-07-29T06:56:51;19.20;94.60
14555;DHT22;7364;50.870;4.722;2022-07-29T06:59:18;19.60;94.00
14555;DHT22;7364;50.870;4.722;2022-07-29T07:01:46;19.80;93.30
14555;DHT22;7364;50.870;4.722;2022-07-29T07:04:13;19.80;93.10
14555;DHT22;7364;50.870;4.722;2022-07-29T07:06:40;19.60;93.40
14555;DHT22;7364;50.870;4.722;2022-07-29T07:09:08;19.50;93.70
14555;DHT22;7364;50.870;4.722;2022-07-29T07:11:35;19.40;94.20
14555;DHT22;7364;50.870;4.722;2022-07-29T07:14:04;19.60;93.90
14555;DHT22;7364;50.870;4.722;2022-07-29T07:16:31;19.60;94.10
14555;DHT22;7364;50.870;4.722;2022-07-29T07:18:58;19.60;94.10
14555;DHT22;7364;50.870;4.722;2022-07-29T07:21:25;19.50;94.40
14555;DHT22;7364;50.870;4.722;2022-07-29T07:23:53;19.50;94.40
14555;DHT22;7364;50.870;4.722;2022-07-29T07:26:21;19.80;94.40
14555;DHT22;7364;50.870;4.722;2022-07-29T07:28:48;19.80;93.80
14555;DHT22;7364;50.870;4.722;2022-07-29T07:31:17;19.90;93.80
14555;DHT22;7364;50.870;4.722;2022-07-29T07:33:44;20.10;93.60
14555;DHT22;7364;50.870;4.722;2022-07-29T07:36:11;19.90;93.50
14555;DHT22;7364;50.870;4.722;2022-07-29T07:38:39;19.80;93.70
14555;DHT22;7364;50.870;4.722;2022-07-29T07:41:06;19.70;94.00
14555;DHT22;7364;50.870;4.722;2022-07-29T07:43:33;19.80;93.90
14555;DHT22;7364;50.870;4.722;2022-07-29T07:46:00;19.80;94.20
14555;DHT22;7364;50.870;4.722;2022-07-29T07:48:29;19.90;94.00
14555;DHT22;7364;50.870;4.722;2022-07-29T07:50:56;20.10;93.90
14555;DHT22;7364;50.870;4.722;2022-07-29T07:53:24;20.00;93.70
14555;DHT22;7364;50.870;4.722;2022-07-29T07:55:52;20.00;93.70
14555;DHT22;7364;50.870;4.722;2022-07-29T07:58:21;20.10;94.00
14555;DHT22;7364;50.870;4.722;2022-07-29T08:00:48;20.30;93.80
14555;DHT22;7364;50.870;4.722;2022-07-29T08:03:15;20.50;93.60
14555;DHT22;7364;50.870;4.722;2022-07-29T08:05:44;20.50;93.30
14555;DHT22;7364;50.870;4.722;2022-07-29T08:08:12;20.50;93.40
14555;DHT22;7364;50.870;4.722;2022-07-29T08:10:39;20.70;93.20
14555;DHT22;7364;50.870;4.722;2022-07-29T08:13:25;20.70;93.10
14555;DHT22;7364;50.870;4.722;2022-07-29T08:15:56;20.70;93.30
14555;DHT22;7364;50.870;4.722;2022-07-29T08:18:25;20.90;92.80
14555;DHT22;7364;50.870;4.722;2022-07-29T08:20:55;21.10;92.50
14555;DHT22;7364;50.870;4.722;2022-07-29T08:23:23;21.10;92.20
14555;DHT22;7364;50.870;4.722;2022-07-29T08:25:52;21.10;92.20
14555;DHT22;7364;50.870;4.722;2022-07-29T08:28:19;21.00;92.10
14555;DHT22;7364;50.870;4.722;2022-07-29T08:30:46;21.00;92.20
14555;DHT22;7364;50.870;4.722;2022-07-29T08:33:13;21.10;92.30
14555;DHT22;7364;50.870;4.722;2022-07-29T08:35:40;21.20;92.20
14555;DHT22;7364;50.870;4.722;2022-07-29T08:38:09;21.60;92.00
14555;DHT22;7364;50.870;4.722;2022-07-29T08:40:36;21.50;91.50
14555;DHT22;7364;50.870;4.722;2022-07-29T08:43:06;21.40;91.00
14555;DHT22;7364;50.870;4.722;2022-07-29T08:45:42;21.30;91.60
14555;DHT22;7364;50.870;4.722;2022-07-29T08:48:11;21.70;91.20
14555;DHT22;7364;50.870;4.722;2022-07-29T08:50:38;22.00;91.10
14555;DHT22;7364;50.870;4.722;2022-07-29T08:53:09;22.00;90.80
14555;DHT22;7364;50.870;4.722;2022-07-29T08:55:39;22.00;90.80
14555;DHT22;7364;50.870;4.722;2022-07-29T08:58:07;22.10;90.70
14555;DHT22;7364;50.870;4.722;2022-07-29T09:00:37;22.00;90.60
14555;DHT22;7364;50.870;4.722;2022-07-29T09:03:06;22.10;90.70
14555;DHT22;7364;50.870;4.722;2022-07-29T09:05:35;21.90;90.70
14555;DHT22;7364;50.870;4.722;2022-07-29T09:08:03;22.20;90.60
14555;DHT22;7364;50.870;4.722;2022-07-29T09:10:34;22.50;90.40
14555;DHT22;7364;50.870;4.722;2022-07-29T09:13:01;22.30;89.70
14555;DHT22;7364;50.870;4.722;2022-07-29T09:15:28;22.30;90.20
14555;DHT22;7364;50.870;4.722;2022-07-29T09:17:56;22.30;89.50
14555;DHT22;7364;50.870;4.722;2022-07-29T09:20:24;22.40;89.40
14555;DHT22;7364;50.870;4.722;2022-07-29T09:22:52;22.50;88.20
14555;DHT22;7364;50.870;4.722;2022-07-29T09:25:33;22.30;87.70
14555;DHT22;7364;50.870;4.722;2022-07-29T09:28:06;22.30;87.70
14555;DHT22;7364;50.870;4.722;2022-07-29T09:30:34;22.40;88.80
14555;DHT22;7364;50.870;4.722;2022-07-29T09:33:02;22.50;88.10
14555;DHT22;7364;50.870;4.722;2022-07-29T09:35:30;22.40;87.90
14555;DHT22;7364;50.870;4.722;2022-07-29T09:37:58;22.50;88.40
14555;DHT22;7364;50.870;4.722;2022-07-29T09:40:38;22.50;88.20
14555;DHT22;7364;50.870;4.722;2022-07-29T09:43:10;22.40;88.00
14555;DHT22;7364;50.870;4.722;2022-07-29T09:45:40;22.50;88.00
14555;DHT22;7364;50.870;4.722;2022-07-29T09:48:15;22.60;88.10
14555;DHT22;7364;50.870;4.722;2022-07-29T09:50:44;22.80;87.40
14555;DHT22;7364;50.870;4.722;2022-07-29T09:53:12;22.80;85.40
14555;DHT22;7364;50.870;4.722;2022-07-29T09:55:57;23.00;85.10
14555;DHT22;7364;50.870;4.722;2022-07-29T09:58:24;23.00;84.70
14555;DHT22;7364;50.870;4.722;2022-07-29T10:00:53;23.00;85.20
14555;DHT22;7364;50.870;4.722;2022-07-29T10:03:21;23.20;84.60
14555;DHT22;7364;50.870;4.722;2022-07-29T10:06:05;23.30;83.70
14555;DHT22;7364;50.870;4.722;2022-07-29T10:08:32;23.30;83.20
14555;DHT22;7364;50.870;4.722;2022-07-29T10:11:10;23.40;83.30
14555;DHT22;7364;50.870;4.722;2022-07-29T10:13:38;23.50;83.10
14555;DHT22;7364;50.870;4.722;2022-07-29T10:16:06;23.60;83.10
14555;DHT22;7364;50.870;4.722;2022-07-29T10:18:35;23.80;82.60
14555;DHT22;7364;50.870;4.722;2022-07-29T10:21:04;23.90;82.40
14555;DHT22;7364;50.870;4.722;2022-07-29T10:23:33;24.00;81.10
14555;DHT22;7364;50.870;4.722;2022-07-29T10:26:02;24.10;80.30
14555;DHT22;7364;50.870;4.722;2022-07-29T10:28:32;24.30;80.10
14555;DHT22;7364;50.870;4.722;2022-07-29T10:31:01;24.30;77.50
14555;DHT22;7364;50.870;4.722;2022-07-29T10:33:44;24.90;78.10
14555;DHT22;7364;50.870;4.722;2022-07-29T10:36:32;25.10;77.10
14555;DHT22;7364;50.870;4.722;2022-07-29T10:39:13;25.30;77.20
14555;DHT22;7364;50.870;4.722;2022-07-29T10:42:00;25.30;76.10
14555;DHT22;7364;50.870;4.722;2022-07-29T10:44:31;26.10;74.80
14555;DHT22;7364;50.870;4.722;2022-07-29T10:46:59;25.90;72.80
14555;DHT22;7364;50.870;4.722;2022-07-29T10:49:27;25.90;72.50
14555;DHT22;7364;50.870;4.722;2022-07-29T10:52:03;25.90;71.90
14555;DHT22;7364;50.870;4.722;2022-07-29T10:54:45;25.80;72.20
14555;DHT22;7364;50.870;4.722;2022-07-29T10:57:25;25.70;73.20
14555;DHT22;7364;50.870;4.722;2022-07-29T11:02:55;26.50;72.50
14555;DHT22;7364;50.870;4.722;2022-07-29T11:05:23;27.00;71.20
14555;DHT22;7364;50.870;4.722;2022-07-29T11:08:18;27.90;68.20
14555;DHT22;7364;50.870;4.722;2022-07-29T11:10:47;27.30;68.10
14555;DHT22;7364;50.870;4.722;2022-07-29T11:16:21;27.30;67.80
14555;DHT22;7364;50.870;4.722;2022-07-29T11:19:21;27.40;67.40
14555;DHT22;7364;50.870;4.722;2022-07-29T11:21:49;28.60;65.70
14555;DHT22;7364;50.870;4.722;2022-07-29T11:24:19;29.10;64.00
14555;DHT22;7364;50.870;4.722;2022-07-29T11:27:08;29.20;63.60
14555;DHT22;7364;50.870;4.722;2022-07-29T11:29:47;28.80;63.20
14555;DHT22;7364;50.870;4.722;2022-07-29T11:32:17;29.00;62.50
14555;DHT22;7364;50.870;4.722;2022-07-29T11:34:47;29.40;61.80
14555;DHT22;7364;50.870;4.722;2022-07-29T11:37:22;30.50;59.80
14555;DHT22;7364;50.870;4.722;2022-07-29T11:42:46;32.30;56.30
14555;DHT22;7364;50.870;4.722;2022-07-29T11:45:16;31.60;55.50
14555;DHT22;7364;50.870;4.722;2022-07-29T11:47:49;30.40;55.80
14555;DHT22;7364;50.870;4.722;2022-07-29T11:50:29;30.50;57.20
14555;DHT22;7364;50.870;4.722;2022-07-29T11:52:57;29.50;58.40
14555;DHT22;7364;50.870;4.722;2022-07-29T11:55:24;30.20;57.80
14555;DHT22;7364;50.870;4.722;2022-07-29T11:57:53;30.40;56.70
14555;DHT22;7364;50.870;4.722;2022-07-29T12:00:23;30.70;56.40
14555;DHT22;7364;50.870;4.722;2022-07-29T12:02:50;30.40;57.70
14555;DHT22;7364;50.870;4.722;2022-07-29T12:05:20;30.60;57.70
14555;DHT22;7364;50.870;4.722;2022-07-29T12:07:48;30.50;57.40
14555;DHT22;7364;50.870;4.722;2022-07-29T12:10:15;29.60;57.40
14555;DHT22;7364;50.870;4.722;2022-07-29T12:12:42;29.50;58.20
14555;DHT22;7364;50.870;4.722;2022-07-29T12:15:19;29.90;57.40
14555;DHT22;7364;50.870;4.722;2022-07-29T12:17:47;31.10;55.70
14555;DHT22;7364;50.870;4.722;2022-07-29T12:20:24;33.00;52.80
14555;DHT22;7364;50.870;4.722;2022-07-29T12:22:52;33.40;52.00
14555;DHT22;7364;50.870;4.722;2022-07-29T12:25:21;34.30;50.10
14555;DHT22;7364;50.870;4.722;2022-07-29T12:27:59;35.60;49.20
14555;DHT22;7364;50.870;4.722;2022-07-29T12:30:44;36.60;47.40
14555;DHT22;7364;50.870;4.722;2022-07-29T12:33:20;39.20;44.50
14555;DHT22;7364;50.870;4.722;2022-07-29T12:35:51;36.60;45.00
14555;DHT22;7364;50.870;4.722;2022-07-29T12:38:19;36.00;46.90
14555;DHT22;7364;50.870;4.722;2022-07-29T12:40:48;34.50;47.20
14555;DHT22;7364;50.870;4.722;2022-07-29T12:43:18;33.30;49.70
14555;DHT22;7364;50.870;4.722;2022-07-29T12:45:48;34.40;48.60
14555;DHT22;7364;50.870;4.722;2022-07-29T12:48:17;35.70;46.90
14555;DHT22;7364;50.870;4.722;2022-07-29T12:51:05;35.30;45.80
14555;DHT22;7364;50.870;4.722;2022-07-29T12:53:34;36.10;46.10
14555;DHT22;7364;50.870;4.722;2022-07-29T12:56:01;35.00;46.30
14555;DHT22;7364;50.870;4.722;2022-07-29T12:58:31;33.30;49.00
14555;DHT22;7364;50.870;4.722;2022-07-29T13:01:07;33.20;49.70
14555;DHT22;7364;50.870;4.722;2022-07-29T13:03:44;34.30;48.70
14555;DHT22;7364;50.870;4.722;2022-07-29T13:06:36;34.40;48.20
14555;DHT22;7364;50.870;4.722;2022-07-29T13:09:13;35.20;46.30
14555;DHT22;7364;50.870;4.722;2022-07-29T13:11:42;35.80;45.70
14555;DHT22;7364;50.870;4.722;2022-07-29T13:14:11;37.10;44.80
14555;DHT22;7364;50.870;4.722;2022-07-29T13:17:01;36.30;44.00
14555;DHT22;7364;50.870;4.722;2022-07-29T13:19:37;35.20;46.00
14555;DHT22;7364;50.870;4.722;2022-07-29T13:22:07;35.80;45.50
14555;DHT22;7364;50.870;4.722;2022-07-29T13:24:49;34.30;46.10
14555;DHT22;7364;50.870;4.722;2022-07-29T13:27:16;33.50;47.10
14555;DHT22;7364;50.870;4.722;2022-07-29T13:29:44;34.20;47.50
14555;DHT22;7364;50.870;4.722;2022-07-29T13:32:12;36.90;44.50
14555;DHT22;7364;50.870;4.722;2022-07-29T13:34:39;38.40;42.40
14555;DHT22;7364;50.870;4.722;2022-07-29T13:37:11;39.00;41.40
14555;DHT22;7364;50.870;4.722;2022-07-29T13:39:44;39.90;40.30
14555;DHT22;7364;50.870;4.722;2022-07-29T13:42:11;41.50;38.10
14555;DHT22;7364;50.870;4.722;2022-07-29T13:44:40;37.90;40.20
14555;DHT22;7364;50.870;4.722;2022-07-29T13:47:19;35.10;43.30
14555;DHT22;7364;50.870;4.722;2022-07-29T13:49:47;33.80;45.60
14555;DHT22;7364;50.870;4.722;2022-07-29T13:52:16;33.90;46.10
14555;DHT22;7364;50.870;4.722;2022-07-29T13:54:43;36.00;44.00
14555;DHT22;7364;50.870;4.722;2022-07-29T13:57:11;37.00;43.20
14555;DHT22;7364;50.870;4.722;2022-07-29T13:59:40;37.50;41.50
14555;DHT22;7364;50.870;4.722;2022-07-29T14:02:08;37.60;41.50
14555;DHT22;7364;50.870;4.722;2022-07-29T14:04:36;36.60;41.80
14555;DHT22;7364;50.870;4.722;2022-07-29T14:07:03;34.80;44.00
14555;DHT22;7364;50.870;4.722;2022-07-29T14:09:34;34.40;44.70
14555;DHT22;7364;50.870;4.722;2022-07-29T14:12:02;34.60;44.00
14555;DHT22;7364;50.870;4.722;2022-07-29T14:14:29;34.10;45.20
14555;DHT22;7364;50.870;4.722;2022-07-29T14:16:58;33.20;46.30
14555;DHT22;7364;50.870;4.722;2022-07-29T14:19:25;32.80;46.60
14555;DHT22;7364;50.870;4.722;2022-07-29T14:21:52;32.50;47.30
14555;DHT22;7364;50.870;4.722;2022-07-29T14:24:19;32.10;47.70
14555;DHT22;7364;50.870;4.722;2022-07-29T14:26:48;31.60;48.70
14555;DHT22;7364;50.870;4.722;2022-07-29T14:29:15;31.20;49.20
14555;DHT22;7364;50.870;4.722;2022-07-29T14:31:42;30.70;50.00
14555;DHT22;7364;50.870;4.722;2022-07-29T14:34:10;29.60;51.30
14555;DHT22;7364;50.870;4.722;2022-07-29T14:36:38;29.30;52.40
14555;DHT22;7364;50.870;4.722;2022-07-29T14:39:06;29.10;52.90
14555;DHT22;7364;50.870;4.722;2022-07-29T14:41:34;29.00;52.80
14555;DHT22;7364;50.870;4.722;2022-07-29T14:44:03;28.70;51.90
14555;DHT22;7364;50.870;4.722;2022-07-29T14:46:30;28.70;52.20
14555;DHT22;7364;50.870;4.722;2022-07-29T14:48:57;28.70;52.80
14555;DHT22;7364;50.870;4.722;2022-07-29T14:51:24;28.70;52.70
14555;DHT22;7364;50.870;4.722;2022-07-29T14:53:52;28.90;52.90
14555;DHT22;7364;50.870;4.722;2022-07-29T14:56:19;28.90;53.10
14555;DHT22;7364;50.870;4.722;2022-07-29T14:58:46;29.10;52.90
14555;DHT22;7364;50.870;4.722;2022-07-29T15:01:14;29.20;52.30
14555;DHT22;7364;50.870;4.722;2022-07-29T15:03:42;28.90;52.50
14555;DHT22;7364;50.870;4.722;2022-07-29T15:06:09;29.00;53.10
14555;DHT22;7364;50.870;4.722;2022-07-29T15:08:36;29.10;52.60
14555;DHT22;7364;50.870;4.722;2022-07-29T15:11:03;29.50;52.70
14555;DHT22;7364;50.870;4.722;2022-07-29T15:13:30;30.50;51.70
14555;DHT22;7364;50.870;4.722;2022-07-29T15:15:58;32.70;48.90
14555;DHT22;7364;50.870;4.722;2022-07-29T15:18:26;33.60;46.20
14555;DHT22;7364;50.870;4.722;2022-07-29T15:20:53;32.50;46.90
14555;DHT22;7364;50.870;4.722;2022-07-29T15:23:21;32.00;48.30
14555;DHT22;7364;50.870;4.722;2022-07-29T15:25:48;33.30;47.70
14555;DHT22;7364;50.870;4.722;2022-07-29T15:28:15;35.40;44.30
14555;DHT22;7364;50.870;4.722;2022-07-29T15:30:42;35.10;43.50
14555;DHT22;7364;50.870;4.722;2022-07-29T15:33:09;34.50;44.30
14555;DHT22;7364;50.870;4.722;2022-07-29T15:35:38;32.80;45.70
14555;DHT22;7364;50.870;4.722;2022-07-29T15:38:06;31.70;46.50
14555;DHT22;7364;50.870;4.722;2022-07-29T15:40:33;31.30;47.90
14555;DHT22;7364;50.870;4.722;2022-07-29T15:43:03;31.00;47.30
14555;DHT22;7364;50.870;4.722;2022-07-29T15:45:36;31.00;47.40
14555;DHT22;7364;50.870;4.722;2022-07-29T15:48:05;31.00;47.10
14555;DHT22;7364;50.870;4.722;2022-07-29T15:50:34;30.60;47.70
14555;DHT22;7364;50.870;4.722;2022-07-29T15:53:02;30.50;48.70
14555;DHT22;7364;50.870;4.722;2022-07-29T15:55:30;29.90;48.70
14555;DHT22;7364;50.870;4.722;2022-07-29T15:57:57;29.90;49.30
14555;DHT22;7364;50.870;4.722;2022-07-29T16:00:24;30.30;49.10
14555;DHT22;7364;50.870;4.722;2022-07-29T16:02:51;30.70;48.60
14555;DHT22;7364;50.870;4.722;2022-07-29T16:05:18;30.80;48.30
14555;DHT22;7364;50.870;4.722;2022-07-29T16:07:46;30.70;48.70
14555;DHT22;7364;50.870;4.722;2022-07-29T16:10:17;30.80;48.60
14555;DHT22;7364;50.870;4.722;2022-07-29T16:12:44;30.90;48.60